Terminal Aerodrome Forecast
Issued by NWS Charleston, WV

Home | Current Version | Previous Version | Text Only | Print | Product List | Glossary On
Versions: 1 2 3 4 5 6 7 8 9 10 11 12 13 14 15 16 17 18 19 20 21 22
000
FTUS41 KRLX 041500 AAA
TAFEKN
TAF AMD
KEKN 041516Z 0415/0512 26008KT P6SM SCT050
     FM050100 22002KT P6SM SCT070
     FM050700 00000KT P6SM BKN070=

USA.gov is the U.S. government's official web portal to all federal, state and local government web resources and services.